Time;durP1;ratioP1;P1;durP2;ratioP2;P2;SDS_P1;SDS_P2;PMS_P1;PMS_P2;Temp;Humidity;BMP_temperature;BMP_pressure;BME280_temperature;BME280_humidity;BME280_pressure;Samples;Min_cycle;Max_cycle;Signal;HPM_P1;HPM_P2
2022/08/26 00:01:38;;;;;;;17.67;12.00;;;25.60;52.80;;;;;;5073644;28;20418;-43
2022/08/26 00:04:04;;;;;;;19.03;12.27;;;25.60;52.80;;;;;;5072870;28;20459;-43
2022/08/26 00:06:31;;;;;;;14.10;12.23;;;25.60;52.70;;;;;;5073144;28;20636;-43
2022/08/26 00:08:57;;;;;;;15.37;11.93;;;25.70;52.60;;;;;;5073191;28;20453;-43
2022/08/26 00:11:23;;;;;;;17.00;12.00;;;25.60;52.60;;;;;;5073237;28;20450;-42
2022/08/26 00:13:49;;;;;;;13.43;11.07;;;25.60;52.60;;;;;;5073038;28;20476;-43
2022/08/26 00:16:15;;;;;;;13.93;11.13;;;25.60;52.60;;;;;;5073032;28;20414;-43
2022/08/26 00:18:40;;;;;;;14.70;11.73;;;25.60;52.60;;;;;;5073102;28;20868;-42
2022/08/26 00:21:07;;;;;;;15.20;12.10;;;25.60;52.60;;;;;;5072843;28;20426;-43
2022/08/26 00:23:33;;;;;;;17.00;11.10;;;25.50;52.60;;;;;;5072958;28;20211;-43
2022/08/26 00:26:00;;;;;;;19.20;12.90;;;25.50;52.60;;;;;;5072620;28;20415;-43
2022/08/26 00:28:26;;;;;;;21.00;12.47;;;25.50;52.70;;;;;;5072869;28;20424;-43
2022/08/26 00:30:52;;;;;;;17.40;12.17;;;25.40;52.80;;;;;;5072733;28;20461;-43
2022/08/26 00:33:18;;;;;;;17.63;14.10;;;25.40;52.80;;;;;;5072630;28;20961;-43
2022/08/26 00:35:46;;;;;;;18.10;11.33;;;25.40;53.00;;;;;;5072456;28;20494;-42
2022/08/26 00:38:12;;;;;;;18.77;12.33;;;25.40;53.00;;;;;;5072787;28;20548;-43
2022/08/26 00:40:44;;;;;;;26.83;12.53;;;25.40;52.80;;;;;;5072805;28;20423;-43
2022/08/26 00:43:10;;;;;;;18.10;11.80;;;25.40;53.00;;;;;;5072685;28;20437;-43
2022/08/26 00:45:58;;;;;;;18.10;12.20;;;25.40;53.00;;;;;;5054531;28;20418;-42
2022/08/26 00:48:26;;;;;;;13.70;12.30;;;25.40;52.90;;;;;;5072638;28;20403;-42
2022/08/26 00:51:01;;;;;;;17.37;13.43;;;25.30;53.00;;;;;;5072410;28;20455;-43
2022/08/26 00:53:32;;;;;;;14.40;10.63;;;25.30;53.00;;;;;;5072891;28;20442;-43
2022/08/26 00:56:27;;;;;;;13.80;10.80;;;25.30;53.00;;;;;;5072307;28;20425;-43
2022/08/26 00:58:55;;;;;;;18.50;13.53;;;25.30;53.00;;;;;;5048513;28;20411;-43
2022/08/26 01:01:21;;;;;;;16.53;12.53;;;25.20;53.10;;;;;;5054368;28;20411;-43
2022/08/26 01:03:48;;;;;;;16.63;11.70;;;25.10;53.30;;;;;;5072249;28;20994;-43
2022/08/26 01:06:15;;;;;;;23.90;12.50;;;25.20;53.40;;;;;;5072094;28;20179;-43
2022/08/26 01:08:42;;;;;;;19.13;12.17;;;25.10;53.40;;;;;;5072459;28;20514;-43
2022/08/26 01:11:10;;;;;;;19.50;12.80;;;25.10;54.10;;;;;;5072277;28;20993;-43
2022/08/26 01:13:37;;;;;;;18.93;13.00;;;25.10;53.50;;;;;;5072369;28;20231;-43
2022/08/26 01:16:07;;;;;;;21.93;14.33;;;25.10;53.50;;;;;;5071558;28;20414;-43
2022/08/26 01:18:33;;;;;;;13.93;11.53;;;25.10;53.40;;;;;;5072228;28;20411;-43
2022/08/26 01:21:17;;;;;;;23.20;13.40;;;25.10;54.30;;;;;;5072058;28;20955;-43
2022/08/26 01:23:48;;;;;;;18.10;13.07;;;25.10;53.60;;;;;;5072327;28;20743;-43
2022/08/26 01:26:21;;;;;;;25.23;14.13;;;25.00;53.60;;;;;;5071982;28;20379;-42
2022/08/26 01:28:50;;;;;;;20.50;14.10;;;25.10;53.60;;;;;;5071976;28;20817;-42
2022/08/26 01:31:19;;;;;;;16.07;11.30;;;25.10;53.60;;;;;;5072052;28;20403;-43
2022/08/26 01:34:09;;;;;;;20.43;13.17;;;25.10;53.70;;;;;;5072268;28;20423;-43
2022/08/26 01:36:37;;;;;;;16.70;13.43;;;25.10;53.60;;;;;;5071832;28;20414;-43
2022/08/26 01:39:04;;;;;;;20.37;12.13;;;25.00;53.70;;;;;;5072258;28;20493;-43
2022/08/26 01:41:31;;;;;;;24.53;12.83;;;25.00;53.70;;;;;;5071956;28;20498;-43
2022/08/26 01:43:58;;;;;;;20.30;13.53;;;25.00;53.70;;;;;;5071804;28;20956;-43
2022/08/26 01:46:27;;;;;;;18.90;12.00;;;25.00;53.70;;;;;;5072105;28;20414;-43
2022/08/26 01:48:57;;;;;;;19.33;11.87;;;25.00;53.80;;;;;;5071662;28;20477;-43
2022/08/26 01:51:25;;;;;;;17.20;13.53;;;25.00;53.80;;;;;;5071750;28;20902;-42
2022/08/26 01:53:51;;;;;;;20.23;13.70;;;25.00;53.90;;;;;;5071789;28;20415;-43
2022/08/26 01:56:18;;;;;;;18.90;13.00;;;24.90;53.80;;;;;;5071420;28;20410;-43
2022/08/26 01:58:50;;;;;;;16.67;12.80;;;24.90;53.80;;;;;;5072023;28;20411;-43
2022/08/26 02:01:16;;;;;;;18.97;13.30;;;24.90;53.70;;;;;;5071928;28;20407;-43
2022/08/26 02:04:08;;;;;;;22.97;12.60;;;24.90;53.90;;;;;;5071587;28;20418;-43
2022/08/26 02:06:37;;;;;;;15.73;10.43;;;25.00;53.80;;;;;;5071579;28;21028;-43
2022/08/26 02:09:05;;;;;;;17.93;12.80;;;24.90;53.80;;;;;;5071547;28;20967;-42
2022/08/26 02:11:31;;;;;;;15.37;12.73;;;24.90;53.90;;;;;;5071454;28;20414;-43
2022/08/26 02:14:01;;;;;;;20.00;11.13;;;24.90;53.80;;;;;;5071919;28;20411;-43
2022/08/26 02:16:32;;;;;;;20.03;12.90;;;24.80;53.70;;;;;;5071735;28;20395;-42
2022/08/26 02:18:59;;;;;;;18.53;13.30;;;24.80;53.60;;;;;;5071448;28;20443;-43
2022/08/26 02:21:25;;;;;;;17.03;12.33;;;24.80;53.80;;;;;;5071399;28;20423;-43
2022/08/26 02:23:51;;;;;;;17.80;12.10;;;24.80;53.70;;;;;;5071746;28;20411;-43
2022/08/26 02:26:20;;;;;;;18.33;12.10;;;24.70;53.80;;;;;;5071524;28;20759;-43
2022/08/26 02:28:58;;;;;;;15.33;11.80;;;24.70;53.90;;;;;;5074643;28;20406;-42
2022/08/26 02:31:25;;;;;;;16.80;11.77;;;24.70;54.00;;;;;;5075270;28;20423;-43
2022/08/26 02:33:50;;;;;;;13.77;12.40;;;24.70;54.00;;;;;;5074979;28;20438;-43
2022/08/26 02:36:24;;;;;;;15.47;11.70;;;24.70;53.80;;;;;;5074978;28;20434;-43
2022/08/26 02:38:50;;;;;;;26.73;13.80;;;24.70;53.90;;;;;;5075044;28;20226;-43
2022/08/26 02:41:16;;;;;;;17.03;12.27;;;24.70;53.90;;;;;;5074861;28;20407;-43
2022/08/26 02:43:42;;;;;;;14.70;11.40;;;24.80;53.80;;;;;;5075040;28;20199;-43
2022/08/26 02:46:08;;;;;;;15.70;11.97;;;24.70;53.80;;;;;;5074598;28;20903;-43
2022/08/26 02:48:34;;;;;;;13.43;11.70;;;24.70;53.70;;;;;;5074968;28;20415;-43
2022/08/26 02:51:00;;;;;;;21.13;13.30;;;24.80;53.70;;;;;;5074496;28;20212;-43
2022/08/26 02:53:27;;;;;;;13.73;10.50;;;24.70;53.80;;;;;;5074888;28;20292;-43
2022/08/26 02:55:52;;;;;;;16.87;12.63;;;24.70;53.80;;;;;;5074682;28;20449;-43
2022/08/26 02:58:19;;;;;;;17.70;12.33;;;24.70;53.80;;;;;;5074604;28;20414;-43
2022/08/26 03:00:46;;;;;;;18.13;12.80;;;24.60;53.70;;;;;;5074590;28;20453;-42
2022/08/26 03:03:14;;;;;;;21.33;14.93;;;24.60;53.70;;;;;;5074765;28;20410;-42
2022/08/26 03:05:41;;;;;;;16.43;11.77;;;24.60;53.80;;;;;;5074268;28;20433;-43
2022/08/26 03:08:10;;;;;;;18.23;13.53;;;24.60;53.70;;;;;;5074445;28;20906;-42
2022/08/26 03:10:37;;;;;;;16.73;11.40;;;24.60;53.70;;;;;;5056380;28;20452;-43
2022/08/26 03:13:02;;;;;;;18.03;13.80;;;24.50;53.80;;;;;;5074625;28;20537;-43
2022/08/26 03:15:28;;;;;;;17.37;11.57;;;24.50;53.90;;;;;;5074177;28;20439;-43
2022/08/26 03:17:54;;;;;;;19.33;12.07;;;24.50;54.00;;;;;;5074191;28;20161;-43
2022/08/26 03:20:20;;;;;;;15.07;11.57;;;24.40;53.90;;;;;;5074401;28;20204;-43
2022/08/26 03:22:46;;;;;;;14.70;12.70;;;24.40;53.90;;;;;;5074337;28;20407;-43
2022/08/26 03:25:15;;;;;;;16.97;13.93;;;24.40;53.90;;;;;;5074094;28;20823;-43
2022/08/26 03:27:41;;;;;;;16.40;13.03;;;24.40;53.90;;;;;;5074370;28;20187;-43
2022/08/26 03:32:52;;;;;;;13.83;12.03;;;24.40;53.80;;;;;;5074093;28;20462;-43
2022/08/26 03:35:18;;;;;;;16.13;12.37;;;24.40;53.80;;;;;;5074217;28;20407;-42
2022/08/26 03:37:43;;;;;;;19.57;12.93;;;24.40;53.80;;;;;;5073578;28;20616;-43
2022/08/26 03:40:10;;;;;;;14.50;11.87;;;24.40;53.90;;;;;;5073602;28;20196;-42
2022/08/26 03:42:38;;;;;;;16.83;13.60;;;24.40;53.90;;;;;;5073762;28;20179;-43
2022/08/26 03:45:06;;;;;;;19.00;13.57;;;24.40;53.80;;;;;;5073664;28;20498;-43
2022/08/26 03:47:32;;;;;;;13.73;11.90;;;24.40;53.80;;;;;;5073408;28;20441;-43
2022/08/26 03:49:58;;;;;;;17.57;14.17;;;24.30;53.90;;;;;;5073559;28;20962;-43
2022/08/26 03:52:24;;;;;;;14.70;12.37;;;24.30;53.90;;;;;;5073494;28;20792;-43
2022/08/26 03:54:50;;;;;;;19.43;13.80;;;24.30;54.00;;;;;;5073529;28;20418;-43
2022/08/26 03:57:16;;;;;;;17.40;12.17;;;24.20;54.00;;;;;;5073255;28;20619;-43
2022/08/26 03:59:42;;;;;;;20.27;12.60;;;24.30;54.10;;;;;;5073625;28;20922;-43
2022/08/26 04:02:07;;;;;;;14.10;12.60;;;24.30;54.00;;;;;;5073628;28;20411;-43
2022/08/26 04:04:34;;;;;;;18.70;13.13;;;24.30;53.90;;;;;;5073182;28;20264;-43
2022/08/26 04:07:00;;;;;;;20.23;12.20;;;24.30;54.00;;;;;;5072963;28;20411;-43
2022/08/26 04:09:26;;;;;;;23.33;14.20;;;24.30;54.10;;;;;;5073163;28;20514;-42
2022/08/26 04:11:53;;;;;;;17.63;13.93;;;24.30;54.10;;;;;;5073257;28;20810;-43
2022/08/26 04:14:21;;;;;;;15.77;12.20;;;24.20;54.10;;;;;;5072979;28;20407;-42
2022/08/26 04:16:48;;;;;;;13.77;12.00;;;24.20;54.10;;;;;;5073145;28;20431;-43
2022/08/26 04:19:15;;;;;;;18.47;11.10;;;24.30;54.10;;;;;;5072985;28;20503;-43
2022/08/26 04:21:42;;;;;;;18.97;12.90;;;24.30;54.00;;;;;;5073072;28;20442;-42
2022/08/26 04:24:09;;;;;;;16.90;12.40;;;24.30;53.90;;;;;;5072772;28;20963;-43
2022/08/26 04:26:38;;;;;;;22.70;11.70;;;24.20;53.90;;;;;;5072699;28;20486;-43
2022/08/26 04:29:09;;;;;;;19.00;13.33;;;24.20;54.10;;;;;;5072692;28;20437;-43
2022/08/26 04:31:35;;;;;;;17.80;13.90;;;24.20;54.10;;;;;;5072955;28;20438;-43
2022/08/26 04:34:02;;;;;;;21.43;12.90;;;24.20;54.30;;;;;;5072906;28;20921;-43
2022/08/26 04:36:28;;;;;;;17.47;13.10;;;24.10;54.30;;;;;;5072385;28;20403;-43
2022/08/26 04:38:54;;;;;;;17.10;13.47;;;24.20;54.40;;;;;;5072081;28;20914;-42
2022/08/26 04:41:20;;;;;;;14.37;12.70;;;24.20;54.40;;;;;;5072717;28;20425;-43
2022/08/26 04:43:47;;;;;;;20.30;16.07;;;24.20;54.40;;;;;;5072548;28;20438;-43
2022/08/26 04:46:17;;;;;;;19.83;13.10;;;24.20;54.40;;;;;;5072310;28;20407;-43
2022/08/26 04:48:43;;;;;;;20.60;12.70;;;24.20;54.30;;;;;;5072804;28;20438;-43
2022/08/26 04:51:09;;;;;;;17.93;11.87;;;24.20;54.40;;;;;;5071641;28;20965;-43
2022/08/26 04:53:36;;;;;;;19.93;12.87;;;24.20;54.40;;;;;;5072278;28;20196;-43
2022/08/26 04:56:02;;;;;;;26.77;13.57;;;24.20;54.50;;;;;;5072090;28;20977;-43
2022/08/26 04:58:28;;;;;;;28.80;14.67;;;24.20;54.50;;;;;;5054469;28;20496;-43
2022/08/26 05:00:55;;;;;;;18.80;13.93;;;24.30;54.70;;;;;;5072417;28;20458;-43
2022/08/26 05:03:23;;;;;;;18.30;12.90;;;24.30;54.60;;;;;;5072611;28;20184;-43
2022/08/26 05:05:50;;;;;;;17.57;13.77;;;24.30;54.50;;;;;;5072161;28;20435;-43
2022/08/26 05:08:18;;;;;;;17.33;12.60;;;24.40;54.50;;;;;;5072352;28;20461;-43
2022/08/26 05:10:47;;;;;;;18.63;14.70;;;24.30;54.60;;;;;;5072418;28;20419;-43
2022/08/26 05:13:16;;;;;;;21.20;12.90;;;24.30;54.70;;;;;;5072308;28;20450;-43
2022/08/26 05:15:42;;;;;;;23.50;13.80;;;24.30;54.70;;;;;;5071995;28;20431;-43
2022/08/26 05:18:09;;;;;;;17.83;14.17;;;24.30;54.80;;;;;;5072222;28;20403;-43
2022/08/26 05:20:43;;;;;;;22.13;13.70;;;24.30;54.90;;;;;;5072018;28;20423;-43
2022/08/26 05:23:09;;;;;;;20.93;14.80;;;24.30;54.80;;;;;;5072453;28;20390;-43
2022/08/26 05:25:40;;;;;;;20.87;15.60;;;24.30;54.80;;;;;;5071777;28;20407;-43
2022/08/26 05:28:07;;;;;;;21.00;14.37;;;24.40;54.90;;;;;;5072153;28;20255;-43
2022/08/26 05:30:33;;;;;;;19.17;15.47;;;24.40;54.70;;;;;;5071985;28;20430;-43
2022/08/26 05:33:00;;;;;;;18.40;13.37;;;24.40;54.90;;;;;;5071797;28;20446;-43
2022/08/26 05:35:32;;;;;;;19.97;14.97;;;24.40;55.10;;;;;;5071840;28;20413;-43
2022/08/26 05:38:03;;;;;;;22.73;14.10;;;24.40;55.30;;;;;;5072177;28;20882;-44
2022/08/26 05:40:34;;;;;;;16.40;13.80;;;24.40;55.40;;;;;;5072031;28;20426;-43
2022/08/26 05:43:00;;;;;;;18.27;14.83;;;24.40;55.30;;;;;;5072035;28;20409;-43
2022/08/26 05:45:26;;;;;;;24.10;14.13;;;24.40;55.30;;;;;;5072084;28;20430;-42
2022/08/26 05:47:52;;;;;;;22.30;13.40;;;24.50;55.50;;;;;;5071959;28;20914;-43
2022/08/26 05:50:20;;;;;;;20.27;14.50;;;24.50;55.60;;;;;;5071455;28;20218;-43
2022/08/26 05:52:49;;;;;;;16.43;14.37;;;24.50;55.50;;;;;;5071842;28;20454;-42
2022/08/26 05:55:16;;;;;;;14.77;12.50;;;24.60;55.70;;;;;;5071778;28;20402;-43
2022/08/26 05:57:43;;;;;;;19.87;15.80;;;24.60;55.60;;;;;;5071525;28;20403;-44
2022/08/26 06:00:10;;;;;;;20.63;13.67;;;24.60;55.70;;;;;;5071888;28;20438;-43
2022/08/26 06:02:38;;;;;;;16.60;13.60;;;24.70;55.70;;;;;;5074922;28;20497;-43
2022/08/26 06:05:05;;;;;;;23.67;15.23;;;24.70;55.60;;;;;;5075541;28;20763;-44
2022/08/26 06:10:15;;;;;;;19.60;16.50;;;24.80;55.50;;;;;;5075742;28;20414;-44
2022/08/26 06:12:41;;;;;;;26.30;13.70;;;24.80;55.40;;;;;;5075713;28;20450;-44
2022/08/26 06:15:07;;;;;;;16.47;13.40;;;24.90;55.50;;;;;;5075664;28;20766;-44
2022/08/26 06:17:33;;;;;;;19.50;14.90;;;24.90;55.40;;;;;;5075045;28;20433;-45
2022/08/26 06:19:59;;;;;;;17.60;13.90;;;25.00;55.40;;;;;;5075282;28;20419;-44
2022/08/26 06:27:53;;;;;;;17.93;13.57;;;25.10;55.30;;;;;;5075033;28;20425;-44
2022/08/26 06:30:19;;;;;;;25.83;16.27;;;25.10;55.20;;;;;;5075185;28;20403;-44
2022/08/26 06:32:45;;;;;;;21.73;15.20;;;25.20;55.20;;;;;;5075069;28;20200;-45
2022/08/26 06:35:11;;;;;;;26.70;16.00;;;25.30;55.10;;;;;;5074886;28;20531;-44
2022/08/26 06:37:37;;;;;;;17.30;13.60;;;25.40;55.00;;;;;;5074704;28;20189;-44
2022/08/26 06:40:03;;;;;;;17.27;14.07;;;25.50;54.90;;;;;;5074890;28;20403;-44
2022/08/26 06:42:29;;;;;;;22.23;15.47;;;25.50;54.70;;;;;;5074784;28;20543;-44
2022/08/26 06:44:55;;;;;;;21.87;15.53;;;25.60;54.70;;;;;;5074934;28;20435;-44
2022/08/26 06:47:21;;;;;;;18.80;12.30;;;25.70;54.60;;;;;;5074563;28;20960;-44
2022/08/26 06:49:47;;;;;;;25.87;14.90;;;25.80;54.50;;;;;;5074744;28;20184;-43
2022/08/26 06:52:13;;;;;;;14.97;10.50;;;25.80;54.30;;;;;;5074583;28;20458;-45
2022/08/26 06:54:42;;;;;;;23.10;14.27;;;25.90;54.30;;;;;;5074898;28;20169;-44
2022/08/26 06:57:09;;;;;;;19.97;15.47;;;26.00;54.70;;;;;;5074468;28;20195;-44
2022/08/26 06:59:35;;;;;;;17.87;14.90;;;26.00;54.50;;;;;;5074698;28;20407;-44
2022/08/26 07:02:01;;;;;;;19.70;15.57;;;26.00;54.40;;;;;;5074607;28;20452;-43
2022/08/26 07:04:27;;;;;;;18.77;14.43;;;26.10;54.50;;;;;;5074735;28;20561;-44
2022/08/26 07:06:54;;;;;;;23.30;17.27;;;26.10;54.60;;;;;;5074362;28;20446;-44
2022/08/26 07:09:25;;;;;;;22.13;14.43;;;26.30;54.80;;;;;;5074775;28;20459;-44
2022/08/26 07:11:52;;;;;;;21.40;14.47;;;26.40;54.80;;;;;;5074388;28;20447;-43
2022/08/26 07:14:19;;;;;;;18.50;14.93;;;26.40;54.50;;;;;;5073913;28;20407;-44
2022/08/26 07:16:46;;;;;;;28.70;16.37;;;26.50;54.10;;;;;;5074582;28;20422;-43
2022/08/26 07:19:12;;;;;;;21.20;16.23;;;26.50;53.60;;;;;;5074351;28;20413;-43
2022/08/26 07:21:41;;;;;;;20.20;12.63;;;26.50;53.20;;;;;;5074456;28;20413;-44
2022/08/26 07:24:08;;;;;;;19.20;14.17;;;26.50;53.30;;;;;;5074432;28;20406;-44
2022/08/26 07:26:34;;;;;;;23.30;13.67;;;26.50;53.40;;;;;;5073899;28;20517;-44
2022/08/26 07:29:00;;;;;;;25.37;16.27;;;26.50;53.40;;;;;;5074267;28;20963;-44
2022/08/26 07:31:29;;;;;;;27.20;15.07;;;26.50;53.50;;;;;;5074309;28;20172;-43
2022/08/26 07:33:55;;;;;;;16.50;12.73;;;26.60;53.60;;;;;;5074167;28;20446;-44
2022/08/26 07:36:23;;;;;;;15.77;13.30;;;26.70;53.50;;;;;;5074142;28;20423;-44
2022/08/26 07:38:49;;;;;;;18.00;16.10;;;26.70;53.30;;;;;;5074202;28;20407;-45
2022/08/26 07:41:17;;;;;;;22.50;15.73;;;26.80;53.20;;;;;;5074275;28;20425;-44
2022/08/26 07:43:44;;;;;;;26.07;17.03;;;26.90;53.20;;;;;;5073697;28;20414;-44
2022/08/26 07:46:12;;;;;;;19.77;15.13;;;26.90;53.20;;;;;;5073600;28;20447;-44
2022/08/26 07:48:39;;;;;;;21.63;14.43;;;27.00;53.60;;;;;;5073633;28;20403;-44
2022/08/26 07:51:04;;;;;;;21.00;14.50;;;27.00;53.30;;;;;;5073605;28;20452;-44
2022/08/26 07:53:30;;;;;;;18.50;15.13;;;27.10;53.00;;;;;;5073482;28;20466;-45
2022/08/26 07:55:57;;;;;;;18.77;14.00;;;27.20;52.90;;;;;;5073257;28;20403;-45
2022/08/26 07:58:23;;;;;;;18.40;14.33;;;27.30;52.90;;;;;;5073610;28;20180;-43
2022/08/26 08:00:49;;;;;;;20.87;15.83;;;27.30;52.80;;;;;;5073503;28;20403;-44
2022/08/26 08:03:15;;;;;;;20.30;14.40;;;27.40;52.60;;;;;;5073313;28;20437;-45
2022/08/26 08:05:41;;;;;;;18.37;14.00;;;27.50;52.40;;;;;;5073271;28;20180;-44
2022/08/26 08:08:08;;;;;;;21.03;13.87;;;27.60;52.40;;;;;;5073127;28;20196;-45
2022/08/26 08:10:35;;;;;;;22.13;13.83;;;27.80;52.50;;;;;;5073222;28;20417;-46
2022/08/26 08:13:04;;;;;;;16.20;12.13;;;27.80;52.30;;;;;;5073014;28;20451;-45
2022/08/26 08:15:31;;;;;;;21.63;13.77;;;27.90;51.70;;;;;;5073260;28;21019;-48
2022/08/26 08:17:58;;;;;;;17.33;12.87;;;28.10;52.00;;;;;;5072833;28;20518;-45
2022/08/26 08:20:24;;;;;;;21.20;14.17;;;28.10;52.00;;;;;;5073296;28;20402;-44
2022/08/26 08:22:51;;;;;;;25.63;13.67;;;28.30;52.90;;;;;;5072967;28;20431;-47
2022/08/26 08:25:17;;;;;;;19.00;11.23;;;28.40;52.60;;;;;;5071907;28;20816;-46
2022/08/26 08:27:49;;;;;;;19.77;11.60;;;28.50;51.90;;;;;;5072580;28;20492;-46
2022/08/26 08:30:18;;;;;;;21.50;11.77;;;28.60;51.30;;;;;;5072845;28;20402;-45
2022/08/26 08:32:44;;;;;;;23.00;13.00;;;28.80;51.30;;;;;;5072603;28;20461;-44
2022/08/26 08:35:12;;;;;;;18.50;12.37;;;28.80;50.40;;;;;;5072581;28;20960;-45
2022/08/26 08:37:39;;;;;;;23.00;11.67;;;28.80;49.90;;;;;;5072438;28;20425;-46
2022/08/26 08:40:07;;;;;;;16.73;11.93;;;28.80;49.20;;;;;;5072483;28;20786;-44
2022/08/26 08:42:57;;;;;;;18.57;11.83;;;29.00;50.70;;;;;;5072826;28;20510;-44
2022/08/26 08:45:41;;;;;;;16.60;11.33;;;29.10;51.00;;;;;;5072831;28;20412;-45
2022/08/26 08:48:18;;;;;;;19.37;10.37;;;29.30;51.00;;;;;;5072360;28;21003;-45
2022/08/26 08:50:54;;;;;;;16.73;9.27;;;29.30;50.50;;;;;;5072458;28;20981;-44
2022/08/26 08:53:32;;;;;;;22.63;12.00;;;29.50;49.40;;;;;;5072659;28;20443;-44
2022/08/26 08:56:25;;;;;;;10.70;9.70;;;29.60;49.00;;;;;;5072072;28;20433;-45
2022/08/26 08:59:13;;;;;;;23.17;10.83;;;29.60;49.50;;;;;;5072264;28;20409;-44
2022/08/26 09:01:48;;;;;;;24.73;10.37;;;29.80;49.80;;;;;;5072556;28;20594;-45
2022/08/26 09:04:41;;;;;;;17.10;10.60;;;29.90;49.80;;;;;;5072263;28;20903;-44
2022/08/26 09:07:12;;;;;;;21.67;10.93;;;30.00;49.00;;;;;;5071748;28;20442;-45
2022/08/26 09:09:40;;;;;;;18.30;9.93;;;30.00;48.70;;;;;;5072283;28;20480;-45
2022/08/26 09:12:11;;;;;;;25.43;10.07;;;30.10;48.20;;;;;;5072048;28;20447;-45
2022/08/26 09:14:37;;;;;;;15.20;9.30;;;30.20;48.90;;;;;;5072441;28;20391;-45
2022/08/26 09:17:03;;;;;;;21.63;10.53;;;30.30;48.40;;;;;;5071738;28;20934;-44
2022/08/26 09:19:46;;;;;;;10.87;9.10;;;30.40;47.50;;;;;;5072300;28;20416;-45
2022/08/26 09:22:28;;;;;;;15.50;8.67;;;30.50;47.30;;;;;;5072112;28;20161;-45
2022/08/26 09:24:55;;;;;;;17.33;11.60;;;30.60;47.30;;;;;;5072174;28;20503;-45
2022/08/26 09:27:41;;;;;;;12.20;9.70;;;30.60;47.10;;;;;;5071848;28;20436;-45
2022/08/26 09:30:08;;;;;;;12.97;8.67;;;30.60;47.50;;;;;;5071864;28;20413;-45
2022/08/26 09:32:34;;;;;;;18.10;9.90;;;30.60;46.80;;;;;;5072136;28;20807;-45
2022/08/26 09:35:06;;;;;;;16.43;9.70;;;30.50;46.30;;;;;;5071984;28;20974;-45
2022/08/26 09:37:42;;;;;;;17.30;10.40;;;30.40;46.40;;;;;;5077031;28;20505;-45
2022/08/26 09:40:25;;;;;;;28.03;9.93;;;30.30;46.60;;;;;;5078726;28;20426;-44
2022/08/26 09:43:11;;;;;;;18.40;11.20;;;30.20;46.80;;;;;;5078757;28;20898;-45
2022/08/26 09:45:39;;;;;;;26.37;10.03;;;30.10;47.20;;;;;;5078242;28;20398;-45
2022/08/26 09:48:06;;;;;;;19.83;10.23;;;30.00;47.40;;;;;;5078423;28;20513;-45
2022/08/26 09:50:48;;;;;;;22.70;10.40;;;30.00;47.90;;;;;;5078769;28;20413;-44
2022/08/26 09:53:18;;;;;;;18.13;10.10;;;30.00;47.80;;;;;;5078387;28;20930;-45
2022/08/26 09:55:48;;;;;;;12.07;9.07;;;29.90;47.30;;;;;;5078061;28;20412;-45
2022/08/26 09:58:30;;;;;;;15.33;9.87;;;29.90;47.30;;;;;;5078400;28;20447;-45
2022/08/26 10:01:00;;;;;;;15.50;11.43;;;29.90;47.40;;;;;;5078615;28;20454;-45
2022/08/26 10:03:29;;;;;;;16.03;9.90;;;29.90;47.10;;;;;;5078294;28;20900;-45
2022/08/26 10:06:01;;;;;;;20.03;11.40;;;29.80;46.70;;;;;;5077988;28;20452;-45
2022/08/26 10:08:37;;;;;;;18.70;9.90;;;29.80;46.70;;;;;;5078397;28;20892;-45
2022/08/26 10:11:27;;;;;;;53.80;16.50;;;29.80;46.90;;;;;;5078375;28;20397;-45
2022/08/26 10:14:10;;;;;;;20.33;10.40;;;29.80;47.50;;;;;;5078129;28;20486;-46
2022/08/26 10:16:44;;;;;;;25.07;10.67;;;29.80;48.00;;;;;;5078021;28;20751;-46
2022/08/26 10:19:19;;;;;;;20.53;10.00;;;29.80;48.00;;;;;;5078199;28;20901;-47
2022/08/26 10:22:15;;;;;;;17.37;10.13;;;29.80;48.00;;;;;;5078247;28;20389;-45
2022/08/26 10:24:54;;;;;;;26.83;9.70;;;29.70;47.90;;;;;;5077796;28;20421;-46
2022/08/26 10:27:29;;;;;;;21.17;9.13;;;29.60;47.80;;;;;;5077853;28;20501;-44
2022/08/26 10:30:03;;;;;;;20.87;9.20;;;29.70;48.00;;;;;;5078090;28;20886;-46
2022/08/26 10:32:43;;;;;;;17.17;9.27;;;29.60;47.90;;;;;;5078336;28;20480;-47
2022/08/26 10:35:11;;;;;;;15.50;10.30;;;29.60;48.40;;;;;;5076989;28;20429;-46
2022/08/26 10:37:45;;;;;;;16.27;10.80;;;29.50;48.60;;;;;;5077735;28;20515;-45
2022/08/26 10:40:26;;;;;;;18.93;10.60;;;29.60;49.00;;;;;;5078019;28;20417;-46
2022/08/26 10:42:51;;;;;;;14.53;10.10;;;29.60;49.50;;;;;;5078000;28;20758;-46
2022/08/26 10:45:24;;;;;;;13.20;9.00;;;29.60;49.10;;;;;;5077874;28;20416;-45
2022/08/26 10:48:02;;;;;;;28.13;10.27;;;29.60;49.60;;;;;;5076061;28;20239;-45
2022/08/26 10:50:37;;;;;;;17.63;10.07;;;29.70;49.70;;;;;;5074905;28;20417;-45
2022/08/26 10:53:32;;;;;;;20.30;10.63;;;29.70;50.70;;;;;;5074975;28;20434;-45
2022/08/26 10:56:23;;;;;;;15.40;10.20;;;29.80;50.20;;;;;;5074970;28;20801;-45
2022/08/26 10:59:01;;;;;;;16.30;11.23;;;29.90;50.30;;;;;;5074776;28;20396;-45
2022/08/26 11:01:52;;;;;;;17.93;10.47;;;29.90;50.50;;;;;;5074847;28;20406;-45
2022/08/26 11:04:33;;;;;;;11.47;7.03;;;29.90;50.60;;;;;;5074925;28;20402;-44
2022/08/26 11:07:36;;;;;;;13.50;7.73;;;29.90;50.20;;;;;;5074257;28;20450;-45
2022/08/26 11:10:15;;;;;;;12.33;6.93;;;29.90;49.30;;;;;;5074461;28;20405;-45
2022/08/26 11:12:41;;;;;;;13.93;7.07;;;29.90;49.30;;;;;;5074390;28;20538;-45
2022/08/26 11:15:12;;;;;;;21.87;6.97;;;30.00;49.40;;;;;;5074528;28;20481;-45
2022/08/26 11:17:44;;;;;;;10.97;7.13;;;30.10;49.20;;;;;;5074118;28;20191;-45
2022/08/26 11:20:22;;;;;;;15.07;6.67;;;30.30;49.00;;;;;;5074941;28;20481;-44
2022/08/26 11:22:53;;;;;;;8.77;6.63;;;30.40;48.80;;;;;;5074341;28;20409;-45
2022/08/26 11:25:24;;;;;;;6.93;5.30;;;30.60;48.30;;;;;;5074695;28;20402;-44
2022/08/26 11:27:56;;;;;;;9.10;5.27;;;30.70;48.00;;;;;;5074567;28;20481;-44
2022/08/26 11:30:23;;;;;;;11.07;6.47;;;30.90;47.50;;;;;;5074367;28;20437;-45
2022/08/26 11:32:52;;;;;;;12.70;6.30;;;31.10;47.50;;;;;;5073948;28;20840;-45
2022/08/26 11:35:24;;;;;;;7.37;5.87;;;31.30;47.40;;;;;;5074013;28;20926;-44
2022/08/26 11:37:56;;;;;;;9.37;5.83;;;31.50;46.60;;;;;;5073886;28;21108;-46
2022/08/26 11:40:29;;;;;;;7.40;5.97;;;31.70;46.40;;;;;;5074151;28;20427;-45
2022/08/26 11:42:59;;;;;;;6.70;5.40;;;31.90;45.80;;;;;;5073833;28;20882;-46
2022/08/26 11:45:44;;;;;;;12.20;6.07;;;32.10;45.20;;;;;;5073899;28;20399;-45
2022/08/26 11:48:35;;;;;;;8.90;6.97;;;32.20;44.90;;;;;;5073671;28;20858;-45
2022/08/26 11:51:20;;;;;;;11.70;5.47;;;32.30;44.50;;;;;;5068656;28;20458;-45
2022/08/26 11:53:46;;;;;;;13.60;7.50;;;32.50;44.50;;;;;;5073838;28;20442;-45
2022/08/26 11:56:32;;;;;;;10.17;6.53;;;32.50;43.80;;;;;;5072014;28;20434;-45
2022/08/26 11:59:06;;;;;;;10.13;6.23;;;32.60;43.70;;;;;;5073775;28;20406;-45
2022/08/26 12:01:38;;;;;;;7.13;5.20;;;32.60;43.30;;;;;;5072542;28;20501;-43
2022/08/26 12:04:07;;;;;;;9.10;5.70;;;32.70;42.90;;;;;;5073830;28;20451;-44
2022/08/26 12:06:39;;;;;;;6.93;4.70;;;32.90;42.90;;;;;;5073055;28;20457;-44
2022/08/26 12:09:12;;;;;;;8.57;4.50;;;32.90;42.40;;;;;;5073674;28;20414;-44
2022/08/26 12:11:38;;;;;;;10.20;5.63;;;33.00;42.60;;;;;;5073445;28;20414;-44
2022/08/26 12:14:06;;;;;;;10.43;5.43;;;33.00;42.00;;;;;;5073134;28;20954;-44
2022/08/26 12:16:37;;;;;;;10.93;6.80;;;33.00;42.30;;;;;;5073106;28;20451;-44
2022/08/26 12:19:23;;;;;;;7.93;5.37;;;33.00;42.00;;;;;;5073189;28;20899;-45
2022/08/26 12:21:49;;;;;;;6.70;4.40;;;33.20;42.00;;;;;;5073509;28;20448;-43
2022/08/26 12:24:19;;;;;;;6.03;3.63;;;33.30;41.30;;;;;;5071975;28;20411;-44
2022/08/26 12:26:45;;;;;;;8.20;3.80;;;33.30;40.50;;;;;;5072599;28;20419;-45
2022/08/26 12:29:27;;;;;;;5.10;4.53;;;33.30;39.80;;;;;;5073162;28;20811;-44
2022/08/26 12:32:12;;;;;;;7.47;3.93;;;33.20;39.40;;;;;;5072807;28;20392;-44
2022/08/26 12:34:39;;;;;;;4.60;3.37;;;33.20;39.50;;;;;;5072906;28;20379;-44
2022/08/26 12:37:06;;;;;;;4.90;3.50;;;33.10;39.60;;;;;;5072499;28;20945;-45
2022/08/26 12:39:37;;;;;;;8.37;4.40;;;33.20;39.80;;;;;;5072603;28;20790;-45
2022/08/26 12:42:14;;;;;;;7.30;4.00;;;33.20;39.60;;;;;;5072536;28;20403;-45
2022/08/26 12:45:02;;;;;;;5.37;3.60;;;33.20;39.10;;;;;;5072868;28;20411;-44
2022/08/26 12:47:33;;;;;;;8.37;4.97;;;33.10;38.40;;;;;;5072244;28;20476;-45
2022/08/26 12:50:10;;;;;;;9.27;4.73;;;33.10;38.70;;;;;;5072500;28;20415;-44
2022/08/26 12:53:02;;;;;;;9.13;5.17;;;33.20;39.30;;;;;;5072709;28;20458;-45
2022/08/26 12:55:31;;;;;;;9.77;4.53;;;33.30;38.50;;;;;;5072345;28;20405;-45
2022/08/26 12:58:14;;;;;;;6.77;4.93;;;33.40;38.30;;;;;;5072235;28;20502;-45